Time;durP1;ratioP1;P1;durP2;ratioP2;P2;SDS_P1;SDS_P2;PMS_P1;PMS_P2;Temp;Humidity;BMP_temperature;BMP_pressure;BME280_temperature;BME280_humidity;BME280_pressure;Samples;Min_cycle;Max_cycle;Signal;HPM_P1;HPM_P2
2023/08/07 00:01:11;;;;;;;2.50;0.88;;;11.00;99.90;;;;;;5071418;28;20032;-65
2023/08/07 00:03:38;;;;;;;1.50;0.80;;;11.00;99.90;;;;;;5074592;28;20048;-66
2023/08/07 00:06:10;;;;;;;2.83;1.10;;;11.00;99.90;;;;;;5054403;28;20504;-66
2023/08/07 00:08:42;;;;;;;1.95;0.93;;;10.90;99.90;;;;;;5071902;28;20040;-66
2023/08/07 00:11:09;;;;;;;1.70;1.23;;;11.00;99.90;;;;;;5072930;28;20036;-65
2023/08/07 00:13:41;;;;;;;2.22;1.00;;;11.00;99.90;;;;;;5071093;28;20036;-66
2023/08/07 00:16:13;;;;;;;2.15;1.08;;;11.00;99.90;;;;;;5074894;28;20131;-66
2023/08/07 00:18:45;;;;;;;1.60;1.00;;;11.00;99.90;;;;;;5072850;28;20500;-66
2023/08/07 00:21:18;;;;;;;3.03;1.10;;;11.00;99.90;;;;;;5065923;28;20063;-66
2023/08/07 00:23:50;;;;;;;1.38;0.88;;;10.90;99.90;;;;;;5056864;28;20047;-66
2023/08/07 00:26:22;;;;;;;1.77;1.13;;;10.90;99.90;;;;;;5072732;28;20049;-66
2023/08/07 00:28:55;;;;;;;1.90;1.08;;;10.90;99.90;;;;;;5055407;28;20436;-66
2023/08/07 00:31:30;;;;;;;2.67;1.33;;;10.90;99.90;;;;;;5050387;28;20044;-67
2023/08/07 00:33:58;;;;;;;2.03;1.20;;;10.90;99.90;;;;;;5054010;28;20063;-65
2023/08/07 00:36:28;;;;;;;4.63;1.20;;;10.90;99.90;;;;;;5058953;28;20068;-65
2023/08/07 00:39:01;;;;;;;1.60;1.08;;;10.90;99.90;;;;;;5064211;28;20044;-65
2023/08/07 00:41:33;;;;;;;1.95;1.20;;;11.00;99.90;;;;;;5064755;28;20041;-65
2023/08/07 00:44:06;;;;;;;1.70;1.00;;;10.90;99.90;;;;;;5055569;28;20051;-65
2023/08/07 00:46:41;;;;;;;2.22;0.93;;;10.90;99.90;;;;;;5055027;28;20040;-65
2023/08/07 00:49:11;;;;;;;3.67;0.95;;;10.90;99.90;;;;;;5060180;28;20096;-65
2023/08/07 00:51:43;;;;;;;3.40;1.00;;;10.90;99.90;;;;;;5051635;28;20051;-65
2023/08/07 00:54:19;;;;;;;1.98;1.00;;;10.80;99.90;;;;;;5054535;28;20044;-65
2023/08/07 00:56:51;;;;;;;1.52;0.85;;;10.80;99.90;;;;;;5049908;28;20048;-66
2023/08/07 00:59:23;;;;;;;1.75;0.95;;;10.80;99.90;;;;;;5068699;28;20461;-65
2023/08/07 01:01:55;;;;;;;2.03;1.00;;;10.80;99.90;;;;;;5057838;28;20389;-65
2023/08/07 01:04:28;;;;;;;3.60;1.20;;;10.90;99.90;;;;;;5071383;28;20040;-65
2023/08/07 01:07:01;;;;;;;2.42;1.02;;;10.90;99.90;;;;;;5069521;28;20102;-65
2023/08/07 01:09:29;;;;;;;1.50;0.90;;;10.90;99.90;;;;;;5068417;28;20564;-65
2023/08/07 01:12:22;;;;;;;1.63;0.95;;;10.90;99.90;;;;;;5049702;28;20106;-65
2023/08/07 01:14:55;;;;;;;2.25;1.08;;;11.00;99.90;;;;;;5072589;28;20141;-65
2023/08/07 01:17:28;;;;;;;3.28;1.20;;;11.00;99.90;;;;;;5040631;28;20041;-65
2023/08/07 01:19:57;;;;;;;2.78;0.93;;;11.00;99.90;;;;;;5069609;28;20036;-65
2023/08/07 01:22:24;;;;;;;2.53;1.30;;;11.00;99.90;;;;;;5053702;28;20444;-65
2023/08/07 01:24:51;;;;;;;2.40;0.98;;;11.00;99.90;;;;;;5055627;28;20044;-64
2023/08/07 01:27:36;;;;;;;2.45;0.90;;;11.00;99.90;;;;;;5071576;28;20051;-65
2023/08/07 01:30:27;;;;;;;1.77;0.80;;;11.00;99.90;;;;;;5048902;28;20036;-64
2023/08/07 01:32:59;;;;;;;1.58;1.00;;;11.10;99.90;;;;;;5049996;28;20108;-65
2023/08/07 01:35:30;;;;;;;1.83;1.00;;;11.10;99.90;;;;;;5060403;28;20036;-65
2023/08/07 01:38:02;;;;;;;1.90;0.90;;;11.10;99.90;;;;;;5065957;28;20409;-64
2023/08/07 01:40:36;;;;;;;3.10;0.90;;;11.10;99.90;;;;;;5048398;28;20032;-65
2023/08/07 01:43:07;;;;;;;;;;;11.10;99.90;;;;;;5050883;28;20052;-65
2023/08/07 01:45:39;;;;;;;2.60;1.42;;;11.10;99.90;;;;;;5054024;28;20095;-65
2023/08/07 01:48:11;;;;;;;2.50;1.05;;;11.10;99.90;;;;;;5056813;28;20135;-64
2023/08/07 01:50:43;;;;;;;1.73;1.10;;;11.20;99.90;;;;;;5051316;28;20500;-64
2023/08/07 01:53:15;;;;;;;4.78;1.05;;;11.10;99.90;;;;;;5053538;28;20064;-64
2023/08/07 01:55:47;;;;;;;3.10;1.08;;;11.10;99.90;;;;;;5070425;28;20040;-65
2023/08/07 01:58:19;;;;;;;2.67;0.90;;;11.10;99.90;;;;;;5048588;28;20039;-64
2023/08/07 02:00:46;;;;;;;2.25;0.93;;;11.10;99.90;;;;;;5053292;28;20040;-64
2023/08/07 02:03:13;;;;;;;1.80;1.10;;;11.10;99.90;;;;;;5049308;28;20041;-64
2023/08/07 02:05:46;;;;;;;1.30;0.82;;;11.20;99.90;;;;;;5066839;28;20433;-66
2023/08/07 02:08:18;;;;;;;2.47;0.95;;;11.20;99.90;;;;;;5051446;28;20415;-64
2023/08/07 02:10:50;;;;;;;2.55;1.20;;;11.10;99.90;;;;;;5069367;28;20044;-64
2023/08/07 02:13:16;;;;;;;1.55;0.95;;;11.20;99.90;;;;;;5057083;28;20128;-65
2023/08/07 02:15:48;;;;;;;1.67;0.95;;;11.20;99.90;;;;;;5057010;28;20043;-65
2023/08/07 02:18:20;;;;;;;2.65;1.17;;;11.20;99.90;;;;;;5058195;28;20066;-64
2023/08/07 02:20:52;;;;;;;1.23;0.95;;;11.20;99.90;;;;;;5071618;28;20389;-64
2023/08/07 02:23:24;;;;;;;2.13;1.13;;;11.20;99.90;;;;;;5037037;28;20045;-64
2023/08/07 02:25:52;;;;;;;1.65;0.93;;;11.20;99.90;;;;;;5054887;28;20611;-64
2023/08/07 02:28:24;;;;;;;2.40;0.90;;;11.10;99.90;;;;;;5049997;28;20045;-64
2023/08/07 02:30:56;;;;;;;2.38;1.02;;;11.10;99.90;;;;;;5063524;28;20041;-64
2023/08/07 02:33:30;;;;;;;2.40;1.00;;;11.10;99.90;;;;;;5040713;28;20062;-64
2023/08/07 02:36:02;;;;;;;1.45;1.20;;;11.10;99.90;;;;;;5074805;28;20046;-65
2023/08/07 02:38:34;;;;;;;2.15;1.00;;;11.20;99.90;;;;;;5040948;28;20045;-64
2023/08/07 02:41:07;;;;;;;1.48;1.10;;;11.20;99.90;;;;;;5063224;28;20455;-64
2023/08/07 02:43:39;;;;;;;2.08;1.30;;;11.20;99.90;;;;;;5057022;28;20157;-64
2023/08/07 02:46:06;;;;;;;2.08;1.30;;;11.20;99.90;;;;;;5072230;28;20131;-64
2023/08/07 02:48:33;;;;;;;2.10;1.20;;;11.20;99.90;;;;;;5053928;28;20123;-64
2023/08/07 02:50:59;;;;;;;1.48;0.98;;;11.20;99.90;;;;;;5053762;28;20053;-64
2023/08/07 02:53:31;;;;;;;2.03;1.52;;;11.20;99.90;;;;;;5051191;28;20044;-64
2023/08/07 02:56:03;;;;;;;3.38;1.15;;;11.20;99.90;;;;;;5055751;28;20049;-64
2023/08/07 02:58:35;;;;;;;2.03;1.15;;;11.20;99.90;;;;;;5054771;28;20036;-64
2023/08/07 03:01:07;;;;;;;2.55;1.20;;;11.20;99.90;;;;;;5055936;28;20040;-65
2023/08/07 03:03:39;;;;;;;4.07;1.35;;;11.20;99.90;;;;;;5051456;28;20141;-64
2023/08/07 03:06:11;;;;;;;2.85;0.98;;;11.30;99.90;;;;;;5056307;28;20050;-64
2023/08/07 03:08:38;;;;;;;2.28;1.30;;;11.30;99.90;;;;;;5073336;28;20044;-65
2023/08/07 03:11:05;;;;;;;2.92;1.38;;;11.30;99.90;;;;;;5055365;28;20064;-64
2023/08/07 03:13:37;;;;;;;1.90;1.13;;;11.30;99.90;;;;;;5030232;28;20039;-64
2023/08/07 03:16:09;;;;;;;2.53;1.05;;;11.20;99.90;;;;;;5048191;28;20033;-64
2023/08/07 03:18:41;;;;;;;1.83;1.20;;;11.30;99.90;;;;;;5055436;28;20041;-64
2023/08/07 03:21:08;;;;;;;2.13;1.10;;;11.30;99.90;;;;;;5061435;28;20039;-64
2023/08/07 03:23:41;;;;;;;2.85;1.00;;;11.20;99.90;;;;;;5029938;28;20122;-64
2023/08/07 03:26:10;;;;;;;1.45;1.02;;;11.20;99.90;;;;;;5056950;28;20044;-64
2023/08/07 03:28:42;;;;;;;;;;;11.30;99.90;;;;;;5074836;28;20041;-64
2023/08/07 03:31:14;;;;;;;1.60;0.90;;;11.20;99.90;;;;;;5062671;28;20291;-64
2023/08/07 03:33:46;;;;;;;1.90;1.10;;;11.20;99.90;;;;;;5055742;28;20037;-64
2023/08/07 03:36:18;;;;;;;1.98;1.20;;;11.30;99.90;;;;;;5047799;28;20583;-64
2023/08/07 03:38:50;;;;;;;2.22;1.08;;;11.30;99.90;;;;;;5055199;28;20123;-64
2023/08/07 03:41:22;;;;;;;5.72;1.60;;;11.20;99.90;;;;;;5069780;28;20041;-64
2023/08/07 03:43:55;;;;;;;3.17;1.50;;;11.20;99.90;;;;;;5054743;28;20585;-64
2023/08/07 03:46:27;;;;;;;1.33;1.00;;;11.30;99.90;;;;;;5038739;28;20102;-64
2023/08/07 03:48:59;;;;;;;2.95;1.30;;;11.20;99.90;;;;;;5040600;28;20131;-64
2023/08/07 03:51:29;;;;;;;4.32;1.20;;;11.20;99.90;;;;;;5054288;28;20040;-64
2023/08/07 03:54:01;;;;;;;4.53;1.20;;;11.30;99.90;;;;;;5060152;28;20041;-64
2023/08/07 03:56:36;;;;;;;8.45;1.80;;;11.30;99.90;;;;;;5073835;28;20036;-64
2023/08/07 03:59:08;;;;;;;1.98;1.27;;;11.20;99.90;;;;;;5052713;28;20051;-64
2023/08/07 04:01:39;;;;;;;3.13;1.23;;;11.30;99.90;;;;;;5053138;28;20052;-64
2023/08/07 04:04:12;;;;;;;3.08;1.33;;;11.30;99.90;;;;;;5048569;28;20117;-64
2023/08/07 04:06:44;;;;;;;3.50;1.92;;;11.30;99.90;;;;;;5058025;28;20040;-64
2023/08/07 04:09:16;;;;;;;1.75;1.10;;;11.30;99.90;;;;;;5056336;28;20101;-64
2023/08/07 04:11:48;;;;;;;2.55;1.25;;;11.30;99.90;;;;;;5050145;28;20132;-64
2023/08/07 04:14:20;;;;;;;1.77;1.15;;;11.30;99.90;;;;;;5052827;28;20720;-65
2023/08/07 04:16:52;;;;;;;4.80;2.15;;;11.30;99.90;;;;;;5055810;28;20099;-64
2023/08/07 04:19:24;;;;;;;3.47;1.30;;;11.30;99.90;;;;;;5072361;28;20047;-65
2023/08/07 04:21:51;;;;;;;3.08;1.27;;;11.30;99.90;;;;;;5063346;28;20124;-65
2023/08/07 04:24:23;;;;;;;2.72;1.17;;;11.30;99.90;;;;;;5048504;28;20564;-64
2023/08/07 04:26:55;;;;;;;2.63;1.27;;;11.30;99.90;;;;;;5054379;28;20040;-64
2023/08/07 04:29:24;;;;;;;3.13;1.00;;;11.30;99.90;;;;;;5070171;28;20040;-64
2023/08/07 04:31:55;;;;;;;;;;;11.30;99.90;;;;;;5056011;28;20051;-64
2023/08/07 04:34:27;;;;;;;1.75;1.10;;;11.20;99.90;;;;;;5071578;28;19942;-64
2023/08/07 04:37:00;;;;;;;3.60;1.25;;;11.20;99.90;;;;;;5068219;28;20436;-64
2023/08/07 04:39:32;;;;;;;3.97;2.15;;;11.20;99.90;;;;;;5070537;28;20041;-64
2023/08/07 04:41:59;;;;;;;3.22;1.20;;;11.20;99.90;;;;;;5069314;28;20064;-64
2023/08/07 04:44:31;;;;;;;2.15;1.20;;;11.20;99.90;;;;;;5072685;28;20044;-64
2023/08/07 04:47:03;;;;;;;2.75;1.73;;;11.20;99.90;;;;;;5055133;28;20072;-65
2023/08/07 04:49:35;;;;;;;2.10;1.00;;;11.10;99.90;;;;;;5066074;28;20079;-64
2023/08/07 04:52:07;;;;;;;1.77;1.08;;;11.10;99.90;;;;;;5070843;28;20067;-64
2023/08/07 04:54:34;;;;;;;2.10;1.20;;;11.10;99.90;;;;;;5052684;28;20732;-64
2023/08/07 04:57:05;;;;;;;3.28;1.20;;;11.10;99.90;;;;;;5054501;28;20246;-65
2023/08/07 04:59:32;;;;;;;1.75;1.00;;;11.10;99.90;;;;;;5046358;28;20048;-64
2023/08/07 05:02:05;;;;;;;2.40;1.30;;;11.00;99.90;;;;;;5069759;28;20044;-64
2023/08/07 05:04:37;;;;;;;1.60;1.05;;;11.00;99.90;;;;;;5068241;28;20040;-64
2023/08/07 05:07:09;;;;;;;3.92;1.45;;;11.10;99.90;;;;;;5072498;28;20496;-64
2023/08/07 05:09:41;;;;;;;2.72;1.55;;;11.10;99.90;;;;;;5063104;28;20040;-64
2023/08/07 05:12:13;;;;;;;2.40;1.25;;;11.10;99.90;;;;;;5052847;28;20509;-64
2023/08/07 05:14:44;;;;;;;3.10;1.30;;;11.10;99.90;;;;;;5066403;28;20047;-65
2023/08/07 05:17:16;;;;;;;2.80;1.20;;;11.10;99.90;;;;;;5069235;28;20067;-64
2023/08/07 05:19:43;;;;;;;3.20;1.35;;;11.20;99.90;;;;;;5062415;28;20069;-64
2023/08/07 05:22:10;;;;;;;2.97;1.35;;;11.20;99.90;;;;;;5068460;28;20583;-64
2023/08/07 05:24:43;;;;;;;2.38;1.25;;;11.30;99.90;;;;;;5050695;28;20040;-64
2023/08/07 05:27:15;;;;;;;2.17;1.50;;;11.30;99.90;;;;;;5069591;28;20046;-64
2023/08/07 05:29:45;;;;;;;2.15;1.33;;;11.30;99.90;;;;;;5069526;28;20135;-64
2023/08/07 05:32:17;;;;;;;2.75;1.27;;;11.30;99.90;;;;;;5071770;28;20075;-65
2023/08/07 05:34:50;;;;;;;3.15;1.58;;;11.40;99.90;;;;;;5069593;28;20049;-64
2023/08/07 05:37:22;;;;;;;3.83;1.30;;;11.40;99.90;;;;;;5063820;28;20154;-64
2023/08/07 05:39:54;;;;;;;1.60;1.17;;;11.40;99.90;;;;;;5068066;28;20064;-65
2023/08/07 05:42:25;;;;;;;2.92;1.30;;;11.40;99.90;;;;;;5067814;28;20048;-65
2023/08/07 05:44:58;;;;;;;3.20;1.25;;;11.40;99.90;;;;;;5051109;28;20044;-64
2023/08/07 05:47:25;;;;;;;3.97;1.30;;;11.50;99.90;;;;;;5069648;28;20028;-64
2023/08/07 05:49:57;;;;;;;2.53;1.35;;;11.50;99.90;;;;;;5052374;28;20054;-64
2023/08/07 05:52:28;;;;;;;1.98;1.30;;;11.50;99.90;;;;;;5070665;28;20040;-64
2023/08/07 05:55:00;;;;;;;2.45;1.38;;;11.60;99.90;;;;;;5068047;28;20036;-64
2023/08/07 05:57:32;;;;;;;2.90;1.33;;;11.60;99.90;;;;;;5071566;28;20053;-64
2023/08/07 06:00:05;;;;;;;4.00;1.20;;;11.70;99.90;;;;;;5070063;28;20029;-64
2023/08/07 06:02:39;;;;;;;4.05;1.20;;;11.70;99.90;;;;;;5041964;28;20040;-65
2023/08/07 06:05:14;;;;;;;4.45;1.35;;;11.60;99.90;;;;;;5071175;28;20037;-64
2023/08/07 06:07:46;;;;;;;3.78;1.30;;;11.70;99.90;;;;;;5068675;28;20059;-64
2023/08/07 06:10:17;;;;;;;4.38;1.30;;;11.70;99.90;;;;;;5050859;28;20167;-65
2023/08/07 06:12:49;;;;;;;2.80;1.88;;;11.80;99.90;;;;;;5043439;28;20041;-64
2023/08/07 06:15:21;;;;;;;4.65;1.65;;;11.90;99.90;;;;;;5052491;28;20043;-67
2023/08/07 06:17:53;;;;;;;3.17;1.67;;;11.90;99.90;;;;;;5069888;28;20520;-65
2023/08/07 06:20:25;;;;;;;2.80;1.50;;;11.90;99.90;;;;;;5051881;28;20041;-64
2023/08/07 06:22:56;;;;;;;3.80;1.58;;;11.90;99.90;;;;;;5068574;28;20037;-64
2023/08/07 06:25:23;;;;;;;5.38;1.35;;;11.90;99.90;;;;;;5049729;28;20037;-65
2023/08/07 06:27:55;;;;;;;4.78;1.33;;;12.00;99.90;;;;;;5066453;28;20040;-64
2023/08/07 06:30:27;;;;;;;4.63;1.27;;;12.10;99.90;;;;;;5072186;28;20052;-64
2023/08/07 06:32:59;;;;;;;2.67;1.10;;;12.10;99.90;;;;;;5064696;28;20051;-64
2023/08/07 06:35:31;;;;;;;3.80;1.10;;;12.10;99.90;;;;;;5048902;28;20037;-64
2023/08/07 06:38:02;;;;;;;6.65;1.50;;;12.20;99.90;;;;;;5067562;28;20064;-64
2023/08/07 06:40:37;;;;;;;2.30;1.15;;;12.20;99.90;;;;;;5051970;28;20523;-64
2023/08/07 06:43:09;;;;;;;3.25;1.20;;;12.20;99.90;;;;;;5046097;28;20505;-64
2023/08/07 06:45:36;;;;;;;3.58;1.20;;;12.30;99.90;;;;;;5069629;28;20041;-64
2023/08/07 06:48:08;;;;;;;2.25;1.60;;;12.30;99.90;;;;;;5071582;28;20064;-64
2023/08/07 06:50:40;;;;;;;3.40;1.55;;;12.40;99.90;;;;;;5065700;28;20527;-64
2023/08/07 06:53:11;;;;;;;3.47;1.40;;;12.50;99.90;;;;;;5052775;28;20063;-64
2023/08/07 06:55:43;;;;;;;2.45;1.13;;;12.60;99.90;;;;;;5067100;28;20040;-64
2023/08/07 06:58:15;;;;;;;2.25;1.33;;;12.60;99.90;;;;;;5069739;28;20047;-64
2023/08/07 07:00:47;;;;;;;5.03;1.60;;;12.60;99.90;;;;;;5049998;28;20037;-64
2023/08/07 07:03:19;;;;;;;3.80;1.65;;;12.80;99.90;;;;;;5072403;28;20046;-64
2023/08/07 07:05:50;;;;;;;1.70;1.02;;;12.80;99.90;;;;;;5074417;28;20896;-66
2023/08/07 07:08:17;;;;;;;1.77;1.13;;;12.90;99.90;;;;;;5075529;28;20047;-64
2023/08/07 07:10:49;;;;;;;3.25;1.30;;;13.00;99.90;;;;;;5075385;28;20063;-64
2023/08/07 07:13:21;;;;;;;5.43;1.50;;;13.10;99.90;;;;;;5074395;28;20036;-64
2023/08/07 07:15:54;;;;;;;3.25;1.33;;;13.20;99.90;;;;;;5075177;28;20043;-64
2023/08/07 07:18:26;;;;;;;2.92;1.58;;;13.10;99.90;;;;;;5073085;28;20041;-64
2023/08/07 07:21:00;;;;;;;3.22;1.48;;;13.00;99.90;;;;;;5069161;28;20048;-64
2023/08/07 07:23:31;;;;;;;;;;;13.10;99.90;;;;;;5065770;28;20033;-64
2023/08/07 07:26:03;;;;;;;2.55;1.20;;;13.10;99.90;;;;;;5055648;28;19952;-64
2023/08/07 07:28:35;;;;;;;4.88;1.20;;;13.20;99.90;;;;;;5055470;28;20046;-64
2023/08/07 07:31:11;;;;;;;3.05;1.60;;;13.10;99.90;;;;;;5068207;28;20385;-64
2023/08/07 07:33:43;;;;;;;2.03;1.35;;;13.10;99.90;;;;;;5072061;28;20484;-64
2023/08/07 07:36:18;;;;;;;4.72;1.67;;;13.20;99.90;;;;;;5075362;28;20036;-64
2023/08/07 07:38:50;;;;;;;4.75;1.88;;;13.30;99.90;;;;;;5054658;28;20043;-64
2023/08/07 07:41:22;;;;;;;2.83;1.38;;;13.20;99.90;;;;;;5072416;28;20538;-64
2023/08/07 07:43:56;;;;;;;1.97;1.03;;;13.20;99.90;;;;;;5068731;28;20091;-64
2023/08/07 07:46:28;;;;;;;4.00;1.48;;;13.20;99.90;;;;;;5068156;28;20051;-64
2023/08/07 07:49:03;;;;;;;1.95;1.48;;;13.10;99.90;;;;;;5055206;28;20036;-64
2023/08/07 07:51:36;;;;;;;3.97;1.45;;;13.20;99.90;;;;;;5070959;28;20055;-65
2023/08/07 07:54:08;;;;;;;1.92;1.25;;;13.20;99.90;;;;;;5073512;28;20512;-65
2023/08/07 07:56:35;;;;;;;1.95;1.27;;;13.10;99.90;;;;;;5074137;28;20089;-65
2023/08/07 07:59:02;;;;;;;2.40;1.30;;;13.10;99.90;;;;;;5074343;28;20119;-64
2023/08/07 08:01:29;;;;;;;1.95;1.30;;;13.30;99.90;;;;;;5076093;28;20037;-65
2023/08/07 08:04:01;;;;;;;2.92;1.30;;;13.50;99.90;;;;;;5055611;28;20098;-64
2023/08/07 08:06:28;;;;;;;3.15;1.23;;;13.70;99.90;;;;;;5070282;28;20124;-65
2023/08/07 08:09:04;;;;;;;3.85;1.50;;;13.60;99.90;;;;;;5044966;28;20522;-65
2023/08/07 08:11:35;;;;;;;4.28;1.52;;;13.40;99.90;;;;;;5072167;28;20579;-65
2023/08/07 08:14:07;;;;;;;2.35;1.50;;;13.30;99.90;;;;;;5072751;28;20041;-65
2023/08/07 08:16:39;;;;;;;1.92;1.40;;;13.20;99.90;;;;;;5071880;28;20043;-65
2023/08/07 08:19:12;;;;;;;2.20;1.45;;;13.10;99.90;;;;;;5037583;28;20036;-65
2023/08/07 08:21:43;;;;;;;2.97;1.30;;;13.10;99.90;;;;;;5071303;28;20047;-65
2023/08/07 08:24:15;;;;;;;4.78;1.60;;;13.00;99.90;;;;;;5050206;28;20041;-65
2023/08/07 08:26:47;;;;;;;3.33;1.88;;;13.10;99.90;;;;;;5072356;28;20556;-65
2023/08/07 08:29:18;;;;;;;3.35;1.40;;;13.30;99.90;;;;;;5049392;28;20531;-65
2023/08/07 08:31:53;;;;;;;1.95;1.20;;;13.40;99.90;;;;;;5066151;28;20128;-65
2023/08/07 08:34:26;;;;;;;3.25;1.30;;;13.60;99.90;;;;;;5050557;28;20041;-65
2023/08/07 08:36:58;;;;;;;2.70;1.40;;;13.70;99.90;;;;;;5070422;28;20110;-65
2023/08/07 08:39:30;;;;;;;4.40;1.35;;;13.80;99.90;;;;;;5073793;28;20032;-64
2023/08/07 08:42:02;;;;;;;1.90;1.50;;;13.90;99.90;;;;;;5071160;28;20043;-65
2023/08/07 08:44:38;;;;;;;2.58;1.38;;;13.90;99.90;;;;;;5053750;28;20040;-65
2023/08/07 08:47:11;;;;;;;2.10;1.95;;;13.90;99.90;;;;;;5054794;28;20041;-65
2023/08/07 08:50:02;;;;;;;4.45;1.63;;;14.00;99.90;;;;;;5071789;28;20117;-65
2023/08/07 08:52:36;;;;;;;2.45;1.50;;;14.00;99.90;;;;;;5061004;28;20032;-65
2023/08/07 08:55:03;;;;;;;2.08;1.30;;;14.00;99.90;;;;;;5064676;28;20495;-65
2023/08/07 08:57:36;;;;;;;1.20;1.10;;;14.20;99.90;;;;;;5057539;28;20039;-65
2023/08/07 09:00:10;;;;;;;2.35;1.40;;;14.20;99.90;;;;;;5054379;28;20460;-65
2023/08/07 09:02:50;;;;;;;3.85;1.73;;;14.30;99.90;;;;;;5072102;28;20032;-66
2023/08/07 09:05:22;;;;;;;1.67;1.30;;;14.20;99.90;;;;;;5067256;28;20044;-65
2023/08/07 09:07:55;;;;;;;10.45;2.28;;;14.30;99.90;;;;;;5053107;28;20041;-65
2023/08/07 09:10:27;;;;;;;;;;;14.30;99.90;;;;;;5044794;28;20424;-65
2023/08/07 09:13:05;;;;;;;1.85;1.35;;;14.20;99.90;;;;;;5068658;28;19924;-65
2023/08/07 09:15:39;;;;;;;4.38;1.80;;;14.20;99.90;;;;;;5056369;28;20535;-65
2023/08/07 09:18:07;;;;;;;1.50;1.10;;;14.40;99.90;;;;;;5049828;28;20045;-65
2023/08/07 09:20:38;;;;;;;2.47;1.65;;;14.30;99.90;;;;;;5069718;28;20029;-65
2023/08/07 09:23:10;;;;;;;2.33;1.55;;;14.30;99.90;;;;;;5060518;28;20040;-64
2023/08/07 09:25:37;;;;;;;1.77;1.23;;;14.20;99.90;;;;;;5071950;28;20047;-65
2023/08/07 09:28:09;;;;;;;3.75;1.50;;;14.20;99.90;;;;;;5071772;28;20082;-65
2023/08/07 09:30:43;;;;;;;2.28;1.40;;;14.20;99.90;;;;;;5051483;28;20055;-65
2023/08/07 09:33:23;;;;;;;2.70;1.83;;;14.30;99.90;;;;;;5051210;28;20048;-65
2023/08/07 09:36:02;;;;;;;2.38;1.40;;;14.30;99.90;;;;;;5072709;28;20037;-65
2023/08/07 09:38:34;;;;;;;2.88;1.83;;;14.40;99.90;;;;;;5063765;28;20096;-65
2023/08/07 09:41:03;;;;;;;10.95;2.72;;;14.40;99.90;;;;;;5054204;28;20563;-65
2023/08/07 09:43:36;;;;;;;2.88;1.17;;;14.50;99.90;;;;;;5067387;28;20047;-65
2023/08/07 09:46:04;;;;;;;4.45;1.90;;;14.50;99.90;;;;;;5069567;28;20112;-65
2023/08/07 09:48:40;;;;;;;2.13;1.42;;;14.50;99.90;;;;;;5072587;28;20512;-65
2023/08/07 09:51:12;;;;;;;2.03;1.27;;;14.50;99.90;;;;;;5067990;28;20036;-65
2023/08/07 09:53:44;;;;;;;2.25;1.20;;;14.50;99.90;;;;;;5058784;28;20040;-65
2023/08/07 09:56:17;;;;;;;2.80;1.30;;;14.40;99.90;;;;;;5071969;28;20041;-65
2023/08/07 09:58:49;;;;;;;2.42;1.50;;;14.60;99.90;;;;;;5072245;28;20037;-65
2023/08/07 10:01:21;;;;;;;2.22;1.42;;;14.90;99.90;;;;;;5061382;28;20041;-65
2023/08/07 10:03:53;;;;;;;1.45;1.10;;;15.20;99.90;;;;;;5072130;28;20116;-64
2023/08/07 10:06:20;;;;;;;2.67;1.60;;;15.40;99.90;;;;;;5069905;28;20102;-65
2023/08/07 10:08:54;;;;;;;2.40;1.33;;;15.50;99.90;;;;;;5052614;28;20098;-64
2023/08/07 10:11:26;;;;;;;1.80;1.20;;;15.60;99.90;;;;;;5050297;28;20427;-65
2023/08/07 10:13:59;;;;;;;2.72;1.60;;;15.70;99.90;;;;;;5066603;28;20514;-65
2023/08/07 10:16:32;;;;;;;1.33;1.08;;;15.60;99.90;;;;;;5048161;28;20044;-64
2023/08/07 10:19:04;;;;;;;2.40;1.13;;;15.40;99.90;;;;;;5063123;28;20496;-65
2023/08/07 10:21:40;;;;;;;1.90;1.13;;;15.30;99.90;;;;;;5068311;28;20056;-65
2023/08/07 10:24:15;;;;;;;1.92;1.02;;;15.20;99.90;;;;;;5074211;28;20067;-64
2023/08/07 10:26:49;;;;;;;2.92;2.13;;;15.10;99.90;;;;;;5068069;28;20037;-65
2023/08/07 10:29:23;;;;;;;1.92;1.13;;;15.00;99.90;;;;;;5072138;28;20158;-65
2023/08/07 10:31:56;;;;;;;1.60;1.15;;;14.90;99.90;;;;;;5072717;28;20049;-65
2023/08/07 10:34:34;;;;;;;2.75;1.30;;;14.90;99.90;;;;;;5075677;28;20098;-62
2023/08/07 10:37:07;;;;;;;2.20;1.13;;;15.00;99.90;;;;;;5070531;28;20045;-63
2023/08/07 10:40:03;;;;;;;1.40;1.05;;;15.00;99.90;;;;;;5051499;28;20043;-62
2023/08/07 10:43:11;;;;;;;3.60;1.50;;;15.10;99.90;;;;;;5074498;28;20068;-62
2023/08/07 10:45:43;;;;;;;2.10;1.05;;;15.30;99.90;;;;;;5075393;28;20044;-62
2023/08/07 10:48:18;;;;;;;1.45;1.20;;;15.30;99.90;;;;;;5064454;28;20504;-61
2023/08/07 10:51:06;;;;;;;2.85;1.13;;;15.30;99.90;;;;;;5051889;28;20069;-62
2023/08/07 10:53:44;;;;;;;1.30;1.08;;;15.30;99.90;;;;;;5058254;28;20044;-65
2023/08/07 10:56:30;;;;;;;4.15;2.60;;;15.30;99.90;;;;;;5053957;28;20033;-65
2023/08/07 10:59:10;;;;;;;1.98;1.08;;;15.20;99.90;;;;;;5075833;28;20041;-65
2023/08/07 11:01:43;;;;;;;1.70;1.48;;;15.20;99.90;;;;;;5074446;28;20140;-65
2023/08/07 11:04:15;;;;;;;1.88;1.27;;;15.20;99.90;;;;;;5074259;28;20049;-64
2023/08/07 11:06:46;;;;;;;1.90;1.20;;;15.20;99.90;;;;;;5054645;28;20060;-65
2023/08/07 11:09:18;;;;;;;4.63;1.63;;;15.20;99.90;;;;;;5075877;28;20044;-65
2023/08/07 11:11:50;;;;;;;1.88;1.20;;;15.20;99.90;;;;;;5074270;28;20431;-65
2023/08/07 11:14:22;;;;;;;2.47;1.27;;;15.30;99.90;;;;;;5073549;28;20042;-65
2023/08/07 11:16:53;;;;;;;1.40;1.15;;;15.50;99.90;;;;;;5072882;28;20044;-65
2023/08/07 11:19:25;;;;;;;2.15;1.15;;;15.80;99.90;;;;;;5074196;28;20039;-65
2023/08/07 11:21:57;;;;;;;4.47;1.30;;;15.90;99.90;;;;;;5054977;28;20045;-65
2023/08/07 11:24:29;;;;;;;2.72;1.13;;;16.00;99.90;;;;;;5073161;28;20029;-65
2023/08/07 11:27:01;;;;;;;3.17;1.15;;;16.00;99.90;;;;;;5074743;28;20040;-65
2023/08/07 11:29:33;;;;;;;2.38;1.52;;;16.10;99.90;;;;;;5060074;28;20041;-65
2023/08/07 11:32:00;;;;;;;2.90;1.30;;;16.30;99.90;;;;;;5071126;28;20131;-65
2023/08/07 11:34:27;;;;;;;2.00;0.90;;;16.40;99.90;;;;;;5053789;28;20038;-66
2023/08/07 11:36:57;;;;;;;1.45;1.10;;;16.60;99.90;;;;;;5068539;28;20124;-65
2023/08/07 11:39:24;;;;;;;2.92;1.10;;;16.50;99.90;;;;;;5069954;28;20028;-65
2023/08/07 11:41:57;;;;;;;1.83;1.02;;;16.40;99.90;;;;;;5052606;28;20090;-65
2023/08/07 11:44:23;;;;;;;2.22;1.38;;;16.20;99.90;;;;;;5072379;28;20036;-62
2023/08/07 11:46:55;;;;;;;1.85;1.00;;;16.10;99.90;;;;;;5052302;28;20041;-62
2023/08/07 11:49:28;;;;;;;2.33;1.20;;;16.10;99.90;;;;;;5067715;28;20438;-62
2023/08/07 11:52:00;;;;;;;1.37;0.93;;;16.10;99.90;;;;;;5072752;28;20101;-62
2023/08/07 11:54:32;;;;;;;1.33;1.00;;;16.20;99.90;;;;;;5073803;28;20287;-62
2023/08/07 11:57:20;;;;;;;3.17;1.75;;;16.30;99.90;;;;;;5071908;28;20044;-62
2023/08/07 11:59:51;;;;;;;1.80;1.40;;;16.30;99.90;;;;;;5072459;28;20136;-62
2023/08/07 12:02:26;;;;;;;2.85;1.23;;;16.40;99.90;;;;;;5069808;28;20401;-62
2023/08/07 12:04:59;;;;;;;2.38;1.10;;;16.30;99.90;;;;;;5071640;28;20037;-62
2023/08/07 12:07:26;;;;;;;2.63;1.10;;;16.30;99.90;;;;;;5054498;28;20132;-62
2023/08/07 12:09:58;;;;;;;1.23;0.90;;;16.20;99.90;;;;;;5053596;28;20546;-62
2023/08/07 12:12:36;;;;;;;1.90;1.30;;;16.40;99.90;;;;;;5052838;28;20047;-63
2023/08/07 12:15:08;;;;;;;1.63;0.93;;;16.60;99.90;;;;;;5052877;28;20056;-62
2023/08/07 12:17:40;;;;;;;2.80;1.10;;;16.80;99.90;;;;;;5055094;28;20041;-62
2023/08/07 12:20:12;;;;;;;1.73;0.90;;;16.90;99.90;;;;;;5073657;28;20055;-62
2023/08/07 12:22:44;;;;;;;4.57;1.35;;;17.00;99.90;;;;;;5070652;28;20033;-62
2023/08/07 12:25:16;;;;;;;1.52;1.17;;;17.00;99.90;;;;;;5072426;28;20036;-63
2023/08/07 12:27:48;;;;;;;2.70;1.30;;;16.90;99.90;;;;;;5073550;28;20118;-62
2023/08/07 12:30:20;;;;;;;1.85;0.90;;;16.90;99.90;;;;;;5073887;28;20033;-62
2023/08/07 12:32:52;;;;;;;2.10;1.17;;;16.80;99.90;;;;;;5070626;28;20135;-62
2023/08/07 12:35:24;;;;;;;1.67;0.93;;;16.90;99.90;;;;;;5055028;28;20037;-63
2023/08/07 12:37:56;;;;;;;3.33;1.35;;;16.80;99.90;;;;;;5057592;28;20041;-62
2023/08/07 12:40:30;;;;;;;1.25;1.00;;;16.80;99.90;;;;;;5069700;28;20037;-63
2023/08/07 12:43:02;;;;;;;1.58;0.95;;;16.70;99.90;;;;;;5056407;28;20036;-62
2023/08/07 12:45:34;;;;;;;1.27;1.02;;;16.70;99.90;;;;;;5068871;28;20032;-61
2023/08/07 12:48:07;;;;;;;1.70;1.20;;;16.70;99.90;;;;;;5067938;28;20037;-62
2023/08/07 12:50:39;;;;;;;1.38;1.10;;;16.60;99.90;;;;;;5057589;28;20040;-62
2023/08/07 12:53:09;;;;;;;3.25;1.20;;;16.80;99.90;;;;;;5071283;28;20051;-62
2023/08/07 12:55:41;;;;;;;2.33;1.17;;;16.80;99.90;;;;;;5068348;28;20048;-62
2023/08/07 12:58:13;;;;;;;1.63;0.90;;;16.90;99.90;;;;;;5073786;28;20036;-62
2023/08/07 13:00:45;;;;;;;1.05;0.88;;;16.80;99.90;;;;;;5046523;28;20045;-63
2023/08/07 13:03:16;;;;;;;1.73;1.00;;;16.80;99.90;;;;;;5065039;28;20709;-62
2023/08/07 13:05:48;;;;;;;2.05;0.90;;;16.80;99.90;;;;;;5046961;28;20502;-62
2023/08/07 13:08:20;;;;;;;1.73;0.90;;;16.80;99.90;;;;;;5068304;28;20060;-62
2023/08/07 13:10:52;;;;;;;1.40;0.90;;;16.80;99.90;;;;;;5052718;28;20147;-62
2023/08/07 13:13:23;;;;;;;1.40;0.95;;;16.80;99.90;;;;;;5067416;28;20040;-63